sensor_id;sensor_type;location;lat;lon;timestamp;P1;durP1;ratioP1;P2;durP2;ratioP2
23266;SDS011;11802;53.160;8.214;2023-05-20T00:02:07;8.87;;;2.60;;
23266;SDS011;11802;53.160;8.214;2023-05-20T00:04:33;5.47;;;2.60;;
23266;SDS011;11802;53.160;8.214;2023-05-20T00:06:58;6.97;;;2.77;;
23266;SDS011;11802;53.160;8.214;2023-05-20T00:09:24;5.10;;;2.53;;
23266;SDS011;11802;53.160;8.214;2023-05-20T00:11:49;6.60;;;2.90;;
23266;SDS011;11802;53.160;8.214;2023-05-20T00:14:15;6.93;;;2.43;;
23266;SDS011;11802;53.160;8.214;2023-05-20T00:16:40;7.00;;;2.63;;
23266;SDS011;11802;53.160;8.214;2023-05-20T00:19:07;6.90;;;2.57;;
23266;SDS011;11802;53.160;8.214;2023-05-20T00:21:32;5.23;;;2.40;;
23266;SDS011;11802;53.160;8.214;2023-05-20T00:23:58;5.47;;;2.60;;
23266;SDS011;11802;53.160;8.214;2023-05-20T00:26:24;5.23;;;2.40;;
23266;SDS011;11802;53.160;8.214;2023-05-20T00:28:50;3.73;;;2.10;;
23266;SDS011;11802;53.160;8.214;2023-05-20T00:31:16;3.60;;;2.20;;
23266;SDS011;11802;53.160;8.214;2023-05-20T00:33:41;5.43;;;2.17;;
23266;SDS011;11802;53.160;8.214;2023-05-20T00:36:07;5.70;;;2.03;;
23266;SDS011;11802;53.160;8.214;2023-05-20T00:38:32;6.50;;;2.73;;
23266;SDS011;11802;53.160;8.214;2023-05-20T00:40:58;4.73;;;2.47;;
23266;SDS011;11802;53.160;8.214;2023-05-20T00:43:23;6.90;;;2.40;;
23266;SDS011;11802;53.160;8.214;2023-05-20T00:45:51;7.63;;;2.40;;
23266;SDS011;11802;53.160;8.214;2023-05-20T00:48:17;4.73;;;2.30;;
23266;SDS011;11802;53.160;8.214;2023-05-20T00:50:45;4.63;;;2.20;;
23266;SDS011;11802;53.160;8.214;2023-05-20T00:53:11;4.37;;;2.00;;
23266;SDS011;11802;53.160;8.214;2023-05-20T00:55:37;7.43;;;2.60;;
23266;SDS011;11802;53.160;8.214;2023-05-20T00:58:03;6.80;;;2.30;;
23266;SDS011;11802;53.160;8.214;2023-05-20T01:00:29;5.50;;;1.97;;
23266;SDS011;11802;53.160;8.214;2023-05-20T01:02:55;6.83;;;2.17;;
23266;SDS011;11802;53.160;8.214;2023-05-20T01:05:21;5.53;;;2.20;;
23266;SDS011;11802;53.160;8.214;2023-05-20T01:07:49;4.33;;;2.00;;
23266;SDS011;11802;53.160;8.214;2023-05-20T01:10:15;4.13;;;2.10;;
23266;SDS011;11802;53.160;8.214;2023-05-20T01:12:51;4.60;;;1.70;;
23266;SDS011;11802;53.160;8.214;2023-05-20T01:15:19;4.97;;;1.97;;
23266;SDS011;11802;53.160;8.214;2023-05-20T01:17:53;3.67;;;2.03;;
23266;SDS011;11802;53.160;8.214;2023-05-20T01:20:25;6.97;;;2.20;;
23266;SDS011;11802;53.160;8.214;2023-05-20T01:22:52;5.37;;;2.27;;
23266;SDS011;11802;53.160;8.214;2023-05-20T01:25:19;4.07;;;2.17;;
23266;SDS011;11802;53.160;8.214;2023-05-20T01:27:45;6.53;;;2.30;;
23266;SDS011;11802;53.160;8.214;2023-05-20T01:30:12;2.97;;;1.80;;
23266;SDS011;11802;53.160;8.214;2023-05-20T01:32:45;4.23;;;2.00;;
23266;SDS011;11802;53.160;8.214;2023-05-20T01:35:15;3.70;;;1.70;;
23266;SDS011;11802;53.160;8.214;2023-05-20T01:37:41;8.47;;;2.10;;
23266;SDS011;11802;53.160;8.214;2023-05-20T01:40:11;4.17;;;1.70;;
23266;SDS011;11802;53.160;8.214;2023-05-20T01:42:39;3.50;;;1.70;;
23266;SDS011;11802;53.160;8.214;2023-05-20T01:45:07;2.70;;;1.73;;
23266;SDS011;11802;53.160;8.214;2023-05-20T01:47:33;3.37;;;1.50;;
23266;SDS011;11802;53.160;8.214;2023-05-20T01:49:58;4.97;;;1.67;;
23266;SDS011;11802;53.160;8.214;2023-05-20T01:52:24;2.97;;;1.60;;
23266;SDS011;11802;53.160;8.214;2023-05-20T01:54:49;4.73;;;1.90;;
23266;SDS011;11802;53.160;8.214;2023-05-20T01:57:22;4.27;;;1.73;;
23266;SDS011;11802;53.160;8.214;2023-05-20T01:59:47;3.97;;;1.70;;
23266;SDS011;11802;53.160;8.214;2023-05-20T02:02:13;5.50;;;1.90;;
23266;SDS011;11802;53.160;8.214;2023-05-20T02:04:39;4.10;;;1.93;;
23266;SDS011;11802;53.160;8.214;2023-05-20T02:07:07;2.13;;;1.40;;
23266;SDS011;11802;53.160;8.214;2023-05-20T02:09:33;4.37;;;2.00;;
23266;SDS011;11802;53.160;8.214;2023-05-20T02:11:58;2.77;;;1.50;;
23266;SDS011;11802;53.160;8.214;2023-05-20T02:14:24;3.57;;;1.57;;
23266;SDS011;11802;53.160;8.214;2023-05-20T02:16:50;4.17;;;1.33;;
23266;SDS011;11802;53.160;8.214;2023-05-20T02:19:15;3.40;;;1.77;;
23266;SDS011;11802;53.160;8.214;2023-05-20T02:21:47;3.63;;;1.60;;
23266;SDS011;11802;53.160;8.214;2023-05-20T02:24:13;4.53;;;1.50;;
23266;SDS011;11802;53.160;8.214;2023-05-20T02:26:39;3.83;;;1.70;;
23266;SDS011;11802;53.160;8.214;2023-05-20T02:29:05;3.33;;;1.60;;
23266;SDS011;11802;53.160;8.214;2023-05-20T02:31:30;2.67;;;1.40;;
23266;SDS011;11802;53.160;8.214;2023-05-20T02:33:56;2.53;;;1.37;;
23266;SDS011;11802;53.160;8.214;2023-05-20T02:36:21;2.90;;;1.60;;
23266;SDS011;11802;53.160;8.214;2023-05-20T02:38:47;4.27;;;1.40;;
23266;SDS011;11802;53.160;8.214;2023-05-20T02:41:12;3.93;;;1.40;;
23266;SDS011;11802;53.160;8.214;2023-05-20T02:43:38;3.63;;;1.40;;
23266;SDS011;11802;53.160;8.214;2023-05-20T02:46:04;2.57;;;1.20;;
23266;SDS011;11802;53.160;8.214;2023-05-20T02:48:30;3.20;;;1.40;;
23266;SDS011;11802;53.160;8.214;2023-05-20T02:50:56;2.40;;;1.23;;
23266;SDS011;11802;53.160;8.214;2023-05-20T02:53:23;2.10;;;1.40;;
23266;SDS011;11802;53.160;8.214;2023-05-20T02:55:48;5.20;;;2.03;;
23266;SDS011;11802;53.160;8.214;2023-05-20T02:58:14;2.70;;;1.43;;
23266;SDS011;11802;53.160;8.214;2023-05-20T03:00:41;2.77;;;1.50;;
23266;SDS011;11802;53.160;8.214;2023-05-20T03:03:07;3.60;;;1.77;;
23266;SDS011;11802;53.160;8.214;2023-05-20T03:05:34;2.53;;;1.60;;
23266;SDS011;11802;53.160;8.214;2023-05-20T03:08:06;4.80;;;1.67;;
23266;SDS011;11802;53.160;8.214;2023-05-20T03:10:36;4.20;;;1.70;;
23266;SDS011;11802;53.160;8.214;2023-05-20T03:13:03;3.27;;;1.50;;
23266;SDS011;11802;53.160;8.214;2023-05-20T03:15:35;4.27;;;1.60;;
23266;SDS011;11802;53.160;8.214;2023-05-20T03:18:01;3.60;;;1.70;;
23266;SDS011;11802;53.160;8.214;2023-05-20T03:20:32;8.10;;;2.23;;
23266;SDS011;11802;53.160;8.214;2023-05-20T03:23:00;6.73;;;1.83;;
23266;SDS011;11802;53.160;8.214;2023-05-20T03:25:26;4.63;;;1.90;;
23266;SDS011;11802;53.160;8.214;2023-05-20T03:27:52;5.30;;;1.73;;
23266;SDS011;11802;53.160;8.214;2023-05-20T03:30:18;5.03;;;1.90;;
23266;SDS011;11802;53.160;8.214;2023-05-20T03:32:44;4.40;;;1.43;;
23266;SDS011;11802;53.160;8.214;2023-05-20T03:35:09;3.27;;;1.70;;
23266;SDS011;11802;53.160;8.214;2023-05-20T03:37:35;5.40;;;1.67;;
23266;SDS011;11802;53.160;8.214;2023-05-20T03:40:01;4.17;;;1.53;;
23266;SDS011;11802;53.160;8.214;2023-05-20T03:42:30;2.13;;;1.43;;
23266;SDS011;11802;53.160;8.214;2023-05-20T03:44:56;3.30;;;1.63;;
23266;SDS011;11802;53.160;8.214;2023-05-20T03:47:21;4.57;;;1.70;;
23266;SDS011;11802;53.160;8.214;2023-05-20T03:49:47;7.00;;;1.83;;
23266;SDS011;11802;53.160;8.214;2023-05-20T03:52:12;2.47;;;1.50;;
23266;SDS011;11802;53.160;8.214;2023-05-20T03:54:38;3.67;;;1.77;;
23266;SDS011;11802;53.160;8.214;2023-05-20T03:57:04;2.77;;;1.67;;
23266;SDS011;11802;53.160;8.214;2023-05-20T03:59:29;4.30;;;1.50;;
23266;SDS011;11802;53.160;8.214;2023-05-20T04:01:55;4.40;;;1.53;;
23266;SDS011;11802;53.160;8.214;2023-05-20T04:04:21;3.80;;;1.47;;
23266;SDS011;11802;53.160;8.214;2023-05-20T04:06:46;1.73;;;1.40;;
23266;SDS011;11802;53.160;8.214;2023-05-20T04:09:12;5.23;;;1.70;;
23266;SDS011;11802;53.160;8.214;2023-05-20T04:11:38;3.93;;;1.60;;
23266;SDS011;11802;53.160;8.214;2023-05-20T04:14:03;3.73;;;1.40;;
23266;SDS011;11802;53.160;8.214;2023-05-20T04:16:29;3.40;;;1.40;;
23266;SDS011;11802;53.160;8.214;2023-05-20T04:18:55;2.10;;;1.33;;
23266;SDS011;11802;53.160;8.214;2023-05-20T04:21:22;2.87;;;1.30;;
23266;SDS011;11802;53.160;8.214;2023-05-20T04:23:48;2.63;;;1.43;;
23266;SDS011;11802;53.160;8.214;2023-05-20T04:26:14;2.97;;;1.50;;
23266;SDS011;11802;53.160;8.214;2023-05-20T04:28:39;2.50;;;1.40;;
23266;SDS011;11802;53.160;8.214;2023-05-20T04:31:06;4.00;;;1.40;;
23266;SDS011;11802;53.160;8.214;2023-05-20T04:33:31;3.73;;;1.40;;
23266;SDS011;11802;53.160;8.214;2023-05-20T04:36:01;3.13;;;1.40;;
23266;SDS011;11802;53.160;8.214;2023-05-20T04:38:27;2.33;;;1.20;;
23266;SDS011;11802;53.160;8.214;2023-05-20T04:40:57;4.83;;;1.50;;
23266;SDS011;11802;53.160;8.214;2023-05-20T04:43:25;3.70;;;1.47;;
23266;SDS011;11802;53.160;8.214;2023-05-20T04:45:54;2.93;;;1.30;;
23266;SDS011;11802;53.160;8.214;2023-05-20T04:48:20;3.43;;;1.20;;
23266;SDS011;11802;53.160;8.214;2023-05-20T04:50:46;3.43;;;1.40;;
23266;SDS011;11802;53.160;8.214;2023-05-20T04:53:13;2.87;;;1.30;;
23266;SDS011;11802;53.160;8.214;2023-05-20T04:55:52;4.37;;;1.60;;
23266;SDS011;11802;53.160;8.214;2023-05-20T04:58:19;3.73;;;1.20;;
23266;SDS011;11802;53.160;8.214;2023-05-20T05:00:48;2.53;;;1.23;;
23266;SDS011;11802;53.160;8.214;2023-05-20T05:03:14;3.38;;;1.20;;
23266;SDS011;11802;53.160;8.214;2023-05-20T05:05:40;3.72;;;1.40;;
23266;SDS011;11802;53.160;8.214;2023-05-20T05:08:06;3.60;;;1.40;;
23266;SDS011;11802;53.160;8.214;2023-05-20T05:10:32;1.65;;;1.00;;
23266;SDS011;11802;53.160;8.214;2023-05-20T05:12:59;3.33;;;1.20;;
23266;SDS011;11802;53.160;8.214;2023-05-20T05:15:25;5.68;;;1.23;;
23266;SDS011;11802;53.160;8.214;2023-05-20T05:17:51;2.53;;;1.27;;
23266;SDS011;11802;53.160;8.214;2023-05-20T05:20:17;3.28;;;1.10;;
23266;SDS011;11802;53.160;8.214;2023-05-20T05:22:43;3.58;;;1.30;;
23266;SDS011;11802;53.160;8.214;2023-05-20T05:25:09;2.63;;;1.20;;
23266;SDS011;11802;53.160;8.214;2023-05-20T05:27:35;2.80;;;1.10;;
23266;SDS011;11802;53.160;8.214;2023-05-20T05:30:01;2.70;;;1.48;;
23266;SDS011;11802;53.160;8.214;2023-05-20T05:32:27;5.10;;;1.60;;
23266;SDS011;11802;53.160;8.214;2023-05-20T05:34:53;4.53;;;1.40;;
23266;SDS011;11802;53.160;8.214;2023-05-20T05:37:18;3.42;;;1.10;;
23266;SDS011;11802;53.160;8.214;2023-05-20T05:39:44;2.17;;;1.40;;
23266;SDS011;11802;53.160;8.214;2023-05-20T05:42:09;2.22;;;1.25;;
23266;SDS011;11802;53.160;8.214;2023-05-20T05:44:35;2.35;;;1.08;;
23266;SDS011;11802;53.160;8.214;2023-05-20T05:47:00;3.95;;;1.55;;
23266;SDS011;11802;53.160;8.214;2023-05-20T05:49:26;3.22;;;1.20;;
23266;SDS011;11802;53.160;8.214;2023-05-20T05:51:52;3.97;;;1.20;;
23266;SDS011;11802;53.160;8.214;2023-05-20T05:54:17;3.97;;;1.30;;
23266;SDS011;11802;53.160;8.214;2023-05-20T05:56:44;3.10;;;1.20;;
23266;SDS011;11802;53.160;8.214;2023-05-20T05:59:10;2.47;;;1.23;;
23266;SDS011;11802;53.160;8.214;2023-05-20T06:01:36;1.88;;;1.20;;
23266;SDS011;11802;53.160;8.214;2023-05-20T06:04:01;4.13;;;1.48;;
23266;SDS011;11802;53.160;8.214;2023-05-20T06:06:27;5.05;;;1.77;;
23266;SDS011;11802;53.160;8.214;2023-05-20T06:08:52;3.67;;;1.40;;
23266;SDS011;11802;53.160;8.214;2023-05-20T06:11:19;3.45;;;1.33;;
23266;SDS011;11802;53.160;8.214;2023-05-20T06:13:45;3.13;;;1.45;;
23266;SDS011;11802;53.160;8.214;2023-05-20T06:16:11;3.08;;;1.45;;
23266;SDS011;11802;53.160;8.214;2023-05-20T06:18:36;2.92;;;1.73;;
23266;SDS011;11802;53.160;8.214;2023-05-20T06:21:02;2.97;;;1.40;;
23266;SDS011;11802;53.160;8.214;2023-05-20T06:23:27;3.30;;;1.10;;
23266;SDS011;11802;53.160;8.214;2023-05-20T06:25:56;3.35;;;1.45;;
23266;SDS011;11802;53.160;8.214;2023-05-20T06:28:22;3.13;;;1.20;;
23266;SDS011;11802;53.160;8.214;2023-05-20T06:30:48;4.72;;;1.60;;
23266;SDS011;11802;53.160;8.214;2023-05-20T06:33:13;3.60;;;1.60;;
23266;SDS011;11802;53.160;8.214;2023-05-20T06:35:39;4.63;;;1.52;;
23266;SDS011;11802;53.160;8.214;2023-05-20T06:38:05;2.88;;;1.30;;
23266;SDS011;11802;53.160;8.214;2023-05-20T06:40:30;1.70;;;1.20;;
23266;SDS011;11802;53.160;8.214;2023-05-20T06:42:56;4.82;;;1.75;;
23266;SDS011;11802;53.160;8.214;2023-05-20T06:45:21;2.53;;;1.30;;
23266;SDS011;11802;53.160;8.214;2023-05-20T06:47:47;3.17;;;1.70;;
23266;SDS011;11802;53.160;8.214;2023-05-20T06:50:13;6.30;;;1.23;;
23266;SDS011;11802;53.160;8.214;2023-05-20T06:52:39;5.78;;;1.92;;
23266;SDS011;11802;53.160;8.214;2023-05-20T06:55:05;1.98;;;1.20;;
23266;SDS011;11802;53.160;8.214;2023-05-20T06:57:31;3.22;;;1.80;;
23266;SDS011;11802;53.160;8.214;2023-05-20T06:59:56;2.30;;;1.10;;
23266;SDS011;11802;53.160;8.214;2023-05-20T07:02:22;3.47;;;1.30;;
23266;SDS011;11802;53.160;8.214;2023-05-20T07:04:49;3.78;;;1.52;;
23266;SDS011;11802;53.160;8.214;2023-05-20T07:07:14;5.45;;;1.65;;
23266;SDS011;11802;53.160;8.214;2023-05-20T07:09:40;3.15;;;1.50;;
23266;SDS011;11802;53.160;8.214;2023-05-20T07:12:07;4.45;;;1.77;;
23266;SDS011;11802;53.160;8.214;2023-05-20T07:14:32;4.30;;;1.73;;
23266;SDS011;11802;53.160;8.214;2023-05-20T07:16:58;2.63;;;1.35;;
23266;SDS011;11802;53.160;8.214;2023-05-20T07:19:23;4.32;;;1.65;;
23266;SDS011;11802;53.160;8.214;2023-05-20T07:21:49;3.17;;;1.38;;
23266;SDS011;11802;53.160;8.214;2023-05-20T07:24:15;3.50;;;1.77;;
23266;SDS011;11802;53.160;8.214;2023-05-20T07:26:41;4.68;;;1.90;;
23266;SDS011;11802;53.160;8.214;2023-05-20T07:29:06;4.90;;;1.67;;
23266;SDS011;11802;53.160;8.214;2023-05-20T07:31:34;3.85;;;1.60;;
23266;SDS011;11802;53.160;8.214;2023-05-20T07:33:59;4.05;;;1.58;;
23266;SDS011;11802;53.160;8.214;2023-05-20T07:36:25;5.13;;;1.67;;
23266;SDS011;11802;53.160;8.214;2023-05-20T07:38:51;3.22;;;1.67;;
23266;SDS011;11802;53.160;8.214;2023-05-20T07:41:17;3.75;;;1.70;;
23266;SDS011;11802;53.160;8.214;2023-05-20T07:43:43;4.10;;;1.83;;
23266;SDS011;11802;53.160;8.214;2023-05-20T07:46:08;2.63;;;1.60;;
23266;SDS011;11802;53.160;8.214;2023-05-20T07:48:34;4.25;;;2.15;;
23266;SDS011;11802;53.160;8.214;2023-05-20T07:51:00;2.72;;;1.40;;
23266;SDS011;11802;53.160;8.214;2023-05-20T07:53:25;4.80;;;1.90;;
23266;SDS011;11802;53.160;8.214;2023-05-20T07:55:51;4.63;;;1.70;;
23266;SDS011;11802;53.160;8.214;2023-05-20T07:58:16;5.45;;;1.75;;
23266;SDS011;11802;53.160;8.214;2023-05-20T08:00:42;2.92;;;1.40;;
23266;SDS011;11802;53.160;8.214;2023-05-20T08:03:08;4.95;;;1.70;;
23266;SDS011;11802;53.160;8.214;2023-05-20T08:05:37;7.35;;;1.80;;
23266;SDS011;11802;53.160;8.214;2023-05-20T08:08:03;3.17;;;1.77;;
23266;SDS011;11802;53.160;8.214;2023-05-20T08:10:29;4.05;;;1.83;;
23266;SDS011;11802;53.160;8.214;2023-05-20T08:12:55;5.25;;;1.75;;
23266;SDS011;11802;53.160;8.214;2023-05-20T08:15:20;5.50;;;1.98;;
23266;SDS011;11802;53.160;8.214;2023-05-20T08:17:46;3.47;;;1.48;;
23266;SDS011;11802;53.160;8.214;2023-05-20T08:20:12;4.03;;;1.73;;
23266;SDS011;11802;53.160;8.214;2023-05-20T08:22:37;5.25;;;1.90;;
23266;SDS011;11802;53.160;8.214;2023-05-20T08:25:03;4.32;;;1.98;;
23266;SDS011;11802;53.160;8.214;2023-05-20T08:27:31;4.80;;;2.22;;
23266;SDS011;11802;53.160;8.214;2023-05-20T08:29:57;6.78;;;2.20;;
23266;SDS011;11802;53.160;8.214;2023-05-20T08:32:22;7.00;;;2.17;;
23266;SDS011;11802;53.160;8.214;2023-05-20T08:34:48;5.57;;;2.00;;
23266;SDS011;11802;53.160;8.214;2023-05-20T08:37:13;4.30;;;2.00;;
23266;SDS011;11802;53.160;8.214;2023-05-20T08:39:40;3.13;;;1.90;;
23266;SDS011;11802;53.160;8.214;2023-05-20T08:42:06;4.72;;;2.15;;
23266;SDS011;11802;53.160;8.214;2023-05-20T08:44:35;5.25;;;2.38;;
23266;SDS011;11802;53.160;8.214;2023-05-20T08:47:01;5.63;;;1.88;;
23266;SDS011;11802;53.160;8.214;2023-05-20T08:49:29;4.53;;;2.00;;
23266;SDS011;11802;53.160;8.214;2023-05-20T08:51:55;3.38;;;1.80;;
23266;SDS011;11802;53.160;8.214;2023-05-20T08:54:22;5.05;;;1.88;;
23266;SDS011;11802;53.160;8.214;2023-05-20T08:56:50;3.10;;;1.70;;
23266;SDS011;11802;53.160;8.214;2023-05-20T08:59:17;4.20;;;2.10;;
23266;SDS011;11802;53.160;8.214;2023-05-20T09:01:44;3.85;;;1.92;;
23266;SDS011;11802;53.160;8.214;2023-05-20T09:04:09;5.00;;;2.30;;
23266;SDS011;11802;53.160;8.214;2023-05-20T09:06:42;5.88;;;2.20;;
23266;SDS011;11802;53.160;8.214;2023-05-20T09:09:11;5.32;;;2.58;;
23266;SDS011;11802;53.160;8.214;2023-05-20T09:11:38;5.75;;;2.10;;
23266;SDS011;11802;53.160;8.214;2023-05-20T09:14:05;6.13;;;2.03;;
23266;SDS011;11802;53.160;8.214;2023-05-20T09:16:31;6.25;;;2.13;;
23266;SDS011;11802;53.160;8.214;2023-05-20T09:18:57;5.30;;;2.10;;
23266;SDS011;11802;53.160;8.214;2023-05-20T09:21:26;4.47;;;2.10;;
23266;SDS011;11802;53.160;8.214;2023-05-20T09:23:55;6.13;;;2.35;;
23266;SDS011;11802;53.160;8.214;2023-05-20T09:26:26;4.32;;;1.77;;
23266;SDS011;11802;53.160;8.214;2023-05-20T09:28:56;6.18;;;2.35;;
23266;SDS011;11802;53.160;8.214;2023-05-20T09:31:26;9.63;;;2.30;;
23266;SDS011;11802;53.160;8.214;2023-05-20T09:33:53;5.57;;;1.98;;
23266;SDS011;11802;53.160;8.214;2023-05-20T09:36:19;4.03;;;2.22;;
23266;SDS011;11802;53.160;8.214;2023-05-20T09:38:47;4.43;;;2.25;;
23266;SDS011;11802;53.160;8.214;2023-05-20T09:41:17;3.67;;;1.67;;
23266;SDS011;11802;53.160;8.214;2023-05-20T09:43:45;3.15;;;1.92;;
23266;SDS011;11802;53.160;8.214;2023-05-20T09:46:12;7.80;;;2.10;;
23266;SDS011;11802;53.160;8.214;2023-05-20T09:48:39;3.45;;;1.70;;
23266;SDS011;11802;53.160;8.214;2023-05-20T09:51:05;6.35;;;1.88;;
23266;SDS011;11802;53.160;8.214;2023-05-20T09:53:31;4.82;;;1.58;;
23266;SDS011;11802;53.160;8.214;2023-05-20T09:55:57;6.72;;;1.73;;
23266;SDS011;11802;53.160;8.214;2023-05-20T09:58:23;3.33;;;1.80;;
23266;SDS011;11802;53.160;8.214;2023-05-20T10:00:49;4.88;;;1.95;;
23266;SDS011;11802;53.160;8.214;2023-05-20T10:03:16;3.60;;;1.60;;
23266;SDS011;11802;53.160;8.214;2023-05-20T10:08:45;3.30;;;1.70;;
23266;SDS011;11802;53.160;8.214;2023-05-20T10:11:46;2.83;;;1.60;;
23266;SDS011;11802;53.160;8.214;2023-05-20T10:14:27;3.78;;;1.63;;
23266;SDS011;11802;53.160;8.214;2023-05-20T10:17:16;3.17;;;1.73;;
23266;SDS011;11802;53.160;8.214;2023-05-20T10:19:49;3.75;;;1.60;;
23266;SDS011;11802;53.160;8.214;2023-05-20T10:22:28;4.65;;;1.92;;
23266;SDS011;11802;53.160;8.214;2023-05-20T10:24:59;4.95;;;1.75;;
23266;SDS011;11802;53.160;8.214;2023-05-20T10:27:28;4.25;;;1.65;;
23266;SDS011;11802;53.160;8.214;2023-05-20T10:29:56;3.67;;;1.90;;
23266;SDS011;11802;53.160;8.214;2023-05-20T10:32:22;4.72;;;1.92;;
23266;SDS011;11802;53.160;8.214;2023-05-20T10:34:57;4.00;;;1.70;;
23266;SDS011;11802;53.160;8.214;2023-05-20T10:37:29;3.92;;;1.58;;
23266;SDS011;11802;53.160;8.214;2023-05-20T10:40:04;3.72;;;1.63;;
23266;SDS011;11802;53.160;8.214;2023-05-20T10:42:37;2.70;;;2.00;;
23266;SDS011;11802;53.160;8.214;2023-05-20T10:45:04;5.85;;;1.75;;
23266;SDS011;11802;53.160;8.214;2023-05-20T10:47:31;4.85;;;1.85;;
23266;SDS011;11802;53.160;8.214;2023-05-20T10:49:57;6.28;;;1.65;;
23266;SDS011;11802;53.160;8.214;2023-05-20T10:52:23;2.88;;;1.60;;
23266;SDS011;11802;53.160;8.214;2023-05-20T10:57:17;11.57;;;1.67;;
23266;SDS011;11802;53.160;8.214;2023-05-20T10:59:43;4.55;;;1.55;;
23266;SDS011;11802;53.160;8.214;2023-05-20T11:02:09;3.60;;;1.50;;
23266;SDS011;11802;53.160;8.214;2023-05-20T11:04:37;4.90;;;1.35;;
23266;SDS011;11802;53.160;8.214;2023-05-20T11:07:03;4.05;;;1.55;;
23266;SDS011;11802;53.160;8.214;2023-05-20T11:09:29;4.97;;;1.70;;
23266;SDS011;11802;53.160;8.214;2023-05-20T11:11:55;6.00;;;1.70;;
23266;SDS011;11802;53.160;8.214;2023-05-20T11:14:21;5.32;;;1.98;;
23266;SDS011;11802;53.160;8.214;2023-05-20T11:16:50;5.18;;;1.55;;
23266;SDS011;11802;53.160;8.214;2023-05-20T11:19:18;3.03;;;1.27;;
23266;SDS011;11802;53.160;8.214;2023-05-20T11:21:44;6.68;;;1.77;;
23266;SDS011;11802;53.160;8.214;2023-05-20T11:24:10;3.22;;;1.63;;
23266;SDS011;11802;53.160;8.214;2023-05-20T11:26:36;4.90;;;1.63;;
23266;SDS011;11802;53.160;8.214;2023-05-20T11:29:02;4.38;;;1.80;;
23266;SDS011;11802;53.160;8.214;2023-05-20T11:31:28;4.07;;;1.83;;
23266;SDS011;11802;53.160;8.214;2023-05-20T11:33:55;3.58;;;1.70;;
23266;SDS011;11802;53.160;8.214;2023-05-20T11:36:23;7.07;;;1.98;;
23266;SDS011;11802;53.160;8.214;2023-05-20T11:38:48;3.00;;;1.63;;
23266;SDS011;11802;53.160;8.214;2023-05-20T11:41:16;5.40;;;2.00;;
23266;SDS011;11802;53.160;8.214;2023-05-20T11:43:53;6.03;;;1.70;;
23266;SDS011;11802;53.160;8.214;2023-05-20T11:46:25;4.35;;;1.40;;
23266;SDS011;11802;53.160;8.214;2023-05-20T11:48:52;3.35;;;1.60;;
23266;SDS011;11802;53.160;8.214;2023-05-20T11:51:21;3.42;;;1.70;;
23266;SDS011;11802;53.160;8.214;2023-05-20T11:53:51;5.88;;;1.75;;
23266;SDS011;11802;53.160;8.214;2023-05-20T11:56:16;3.97;;;1.65;;
23266;SDS011;11802;53.160;8.214;2023-05-20T11:58:42;6.30;;;2.00;;
23266;SDS011;11802;53.160;8.214;2023-05-20T12:01:08;5.50;;;2.10;;
23266;SDS011;11802;53.160;8.214;2023-05-20T12:03:34;3.38;;;1.75;;
23266;SDS011;11802;53.160;8.214;2023-05-20T12:06:01;3.92;;;1.73;;
23266;SDS011;11802;53.160;8.214;2023-05-20T12:08:27;4.43;;;1.80;;
23266;SDS011;11802;53.160;8.214;2023-05-20T12:10:53;3.05;;;1.70;;
23266;SDS011;11802;53.160;8.214;2023-05-20T12:13:18;4.65;;;1.63;;
23266;SDS011;11802;53.160;8.214;2023-05-20T12:15:44;5.65;;;1.90;;
23266;SDS011;11802;53.160;8.214;2023-05-20T12:18:09;3.33;;;1.63;;
23266;SDS011;11802;53.160;8.214;2023-05-20T12:20:35;3.40;;;1.65;;
23266;SDS011;11802;53.160;8.214;2023-05-20T12:23:01;4.15;;;2.03;;
23266;SDS011;11802;53.160;8.214;2023-05-20T12:25:27;5.63;;;1.75;;
23266;SDS011;11802;53.160;8.214;2023-05-20T12:27:53;3.90;;;1.60;;
23266;SDS011;11802;53.160;8.214;2023-05-20T12:30:19;4.47;;;1.80;;
23266;SDS011;11802;53.160;8.214;2023-05-20T12:32:48;8.52;;;1.70;;
23266;SDS011;11802;53.160;8.214;2023-05-20T12:35:14;6.20;;;1.90;;
23266;SDS011;11802;53.160;8.214;2023-05-20T12:37:41;4.50;;;1.80;;
23266;SDS011;11802;53.160;8.214;2023-05-20T12:40:08;3.88;;;1.80;;
23266;SDS011;11802;53.160;8.214;2023-05-20T12:42:35;3.67;;;1.48;;
23266;SDS011;11802;53.160;8.214;2023-05-20T12:45:04;6.00;;;1.88;;
23266;SDS011;11802;53.160;8.214;2023-05-20T12:47:31;3.80;;;1.73;;
23266;SDS011;11802;53.160;8.214;2023-05-20T12:49:57;3.42;;;1.40;;
23266;SDS011;11802;53.160;8.214;2023-05-20T12:52:22;4.88;;;1.60;;
23266;SDS011;11802;53.160;8.214;2023-05-20T12:54:48;4.53;;;1.52;;
23266;SDS011;11802;53.160;8.214;2023-05-20T12:57:13;3.88;;;1.67;;
23266;SDS011;11802;53.160;8.214;2023-05-20T12:59:39;2.53;;;1.50;;
23266;SDS011;11802;53.160;8.214;2023-05-20T13:02:05;5.07;;;1.30;;
23266;SDS011;11802;53.160;8.214;2023-05-20T13:04:31;6.10;;;1.85;;
23266;SDS011;11802;53.160;8.214;2023-05-20T13:06:56;2.95;;;1.70;;
23266;SDS011;11802;53.160;8.214;2023-05-20T13:09:22;6.57;;;1.63;;
23266;SDS011;11802;53.160;8.214;2023-05-20T13:11:50;4.20;;;1.73;;
23266;SDS011;11802;53.160;8.214;2023-05-20T13:14:16;2.92;;;1.40;;
23266;SDS011;11802;53.160;8.214;2023-05-20T13:16:41;3.65;;;1.60;;
23266;SDS011;11802;53.160;8.214;2023-05-20T13:19:07;7.28;;;1.50;;
23266;SDS011;11802;53.160;8.214;2023-05-20T13:21:33;3.70;;;2.00;;
23266;SDS011;11802;53.160;8.214;2023-05-20T13:23:59;3.25;;;1.30;;
23266;SDS011;11802;53.160;8.214;2023-05-20T13:26:25;6.53;;;1.77;;
23266;SDS011;11802;53.160;8.214;2023-05-20T13:28:51;5.15;;;1.95;;
23266;SDS011;11802;53.160;8.214;2023-05-20T13:31:16;3.70;;;1.42;;
23266;SDS011;11802;53.160;8.214;2023-05-20T13:33:42;3.55;;;1.50;;
23266;SDS011;11802;53.160;8.214;2023-05-20T13:36:07;3.70;;;1.45;;
23266;SDS011;11802;53.160;8.214;2023-05-20T13:38:34;3.20;;;1.40;;
23266;SDS011;11802;53.160;8.214;2023-05-20T13:40:59;4.03;;;1.75;;
23266;SDS011;11802;53.160;8.214;2023-05-20T13:43:25;3.65;;;1.58;;
23266;SDS011;11802;53.160;8.214;2023-05-20T13:45:51;3.13;;;1.38;;
23266;SDS011;11802;53.160;8.214;2023-05-20T13:48:16;4.38;;;1.83;;
23266;SDS011;11802;53.160;8.214;2023-05-20T13:50:42;4.03;;;1.80;;
23266;SDS011;11802;53.160;8.214;2023-05-20T13:53:07;4.15;;;1.65;;
23266;SDS011;11802;53.160;8.214;2023-05-20T13:55:37;3.28;;;1.63;;
23266;SDS011;11802;53.160;8.214;2023-05-20T13:58:02;2.40;;;1.45;;
23266;SDS011;11802;53.160;8.214;2023-05-20T14:00:29;4.57;;;1.38;;
23266;SDS011;11802;53.160;8.214;2023-05-20T14:02:55;3.10;;;1.50;;
23266;SDS011;11802;53.160;8.214;2023-05-20T14:05:21;2.67;;;1.30;;
23266;SDS011;11802;53.160;8.214;2023-05-20T14:07:47;3.75;;;1.33;;
23266;SDS011;11802;53.160;8.214;2023-05-20T14:10:12;2.25;;;1.55;;
23266;SDS011;11802;53.160;8.214;2023-05-20T14:12:38;5.68;;;1.42;;
23266;SDS011;11802;53.160;8.214;2023-05-20T14:15:04;4.05;;;1.60;;
23266;SDS011;11802;53.160;8.214;2023-05-20T14:17:30;2.05;;;1.35;;
23266;SDS011;11802;53.160;8.214;2023-05-20T14:19:56;2.75;;;1.40;;
23266;SDS011;11802;53.160;8.214;2023-05-20T14:22:21;3.17;;;1.52;;
23266;SDS011;11802;53.160;8.214;2023-05-20T14:24:47;4.10;;;1.50;;
23266;SDS011;11802;53.160;8.214;2023-05-20T14:27:12;2.92;;;1.52;;
23266;SDS011;11802;53.160;8.214;2023-05-20T14:29:39;2.95;;;1.50;;
23266;SDS011;11802;53.160;8.214;2023-05-20T14:32:04;3.67;;;1.63;;
23266;SDS011;11802;53.160;8.214;2023-05-20T14:34:30;1.77;;;1.42;;
23266;SDS011;11802;53.160;8.214;2023-05-20T14:36:55;7.05;;;1.70;;
23266;SDS011;11802;53.160;8.214;2023-05-20T14:39:21;5.70;;;1.52;;
23266;SDS011;11802;53.160;8.214;2023-05-20T14:41:47;4.50;;;1.85;;
23266;SDS011;11802;53.160;8.214;2023-05-20T14:44:12;3.58;;;1.48;;
23266;SDS011;11802;53.160;8.214;2023-05-20T14:46:38;5.63;;;1.52;;
23266;SDS011;11802;53.160;8.214;2023-05-20T14:49:03;2.97;;;1.40;;
23266;SDS011;11802;53.160;8.214;2023-05-20T14:51:29;2.45;;;1.50;;